Tokuyo Maru No.15 — JD2184 — position and weather

sailwx.info

Track history (hours):
 
Tides and Currents Weather Stations Pressure Air Temp Water Temp Dewpoint Dewpoint Depression Visibility Wind Speed Wind Dir Waves Ship Positions

Tokuyo Maru No.15

Last reported at 2014-Aug-23 03:33 UTC. Time now 2014-Aug-23 15:26 UTC.
Position N 35°29' E 140°01'.

Length 66 m; draft 4.5 m.

Type: Tanker. MMSI: 431402034.

Date/timePositionNaut miles runAvg speedWind from/ knotsBaromVisibWave heightAir tempDewpointWater temp
2014-Aug-23 03:33N 35°29' E 140°01'0 0.0
2014-Aug-23 02:33N 35°29' E 140°01'0 0.0
2014-Aug-23 01:33N 35°29' E 140°01'4 4.1
2014-Aug-23 00:33N 35°29' E 139°56'1211.7
2014-Aug-22 23:33N 35°22' E 139°45'1111.1
2014-Aug-22 22:33N 35°11' E 139°46'1211.9
2014-Aug-22 21:33N 35°02' E 139°36'1312.8
2014-Aug-22 20:33N 34°54' E 139°24'  
2014-Aug-18 09:34N 34°58' E 139°22'1110.8
2014-Aug-18 08:33N 35°03' E 139°33'1111.2
2014-Aug-18 07:33N 35°10' E 139°44'1110.6
2014-Aug-18 06:33N 35°21' E 139°42'1010.5
2014-Aug-18 05:34N 35°29' E 139°50'9 8.7
2014-Aug-18 04:33N 35°29' E 140°01'0 0.0
2014-Aug-18 03:34N 35°29' E 140°01'0 0.0
2014-Aug-18 02:33N 35°29' E 140°01'0 0.0
2014-Aug-18 01:34N 35°29' E 140°01'0 0.0
2014-Aug-18 00:33N 35°29' E 140°01'17 2.9
2014-Aug-17 18:34N 35°16' E 139°47'1110.8
2014-Aug-17 17:33N 35°06' E 139°41'1312.6
2014-Aug-17 16:33N 34°58' E 139°30'  
Track history (hours):
 
Tides and Currents Weather Stations Pressure Air Temp Water Temp Dewpoint Dewpoint Depression Visibility Wind Speed Wind Dir Waves Ship Positions

Tokuyo Maru No.15

Last reported at 2014-Aug-23 03:33 UTC. Time now 2014-Aug-23 15:26 UTC.
Position N 35°29' E 140°01'.

Length 66 m; draft 4.5 m.

Type: Tanker. MMSI: 431402034.

Date/timePositionNaut miles runAvg speedWind from/ knotsBaromVisibWave heightAir tempDewpointWater temp
2014-Aug-23 03:33N 35°29' E 140°01'0 0.0
2014-Aug-23 02:33N 35°29' E 140°01'0 0.0
2014-Aug-23 01:33N 35°29' E 140°01'4 4.1
2014-Aug-23 00:33N 35°29' E 139°56'1211.7
2014-Aug-22 23:33N 35°22' E 139°45'1111.1
2014-Aug-22 22:33N 35°11' E 139°46'1211.9
2014-Aug-22 21:33N 35°02' E 139°36'1312.8
2014-Aug-22 20:33N 34°54' E 139°24'  
2014-Aug-18 09:34N 34°58' E 139°22'1110.8
2014-Aug-18 08:33N 35°03' E 139°33'1111.2
2014-Aug-18 07:33N 35°10' E 139°44'1110.6
2014-Aug-18 06:33N 35°21' E 139°42'1010.5
2014-Aug-18 05:34N 35°29' E 139°50'9 8.7
2014-Aug-18 04:33N 35°29' E 140°01'0 0.0
2014-Aug-18 03:34N 35°29' E 140°01'0 0.0
2014-Aug-18 02:33N 35°29' E 140°01'0 0.0
2014-Aug-18 01:34N 35°29' E 140°01'0 0.0
2014-Aug-18 00:33N 35°29' E 140°01'17 2.9
2014-Aug-17 18:34N 35°16' E 139°47'1110.8
2014-Aug-17 17:33N 35°06' E 139°41'1312.6
2014-Aug-17 16:33N 34°58' E 139°30'  

Dump ship's entire track history